Time;durP1;ratioP1;P1;durP2;ratioP2;P2;SDS_P1;SDS_P2;PMS_P1;PMS_P2;Temp;Humidity;BMP_temperature;BMP_pressure;BME280_temperature;BME280_humidity;BME280_pressure;Samples;Min_cycle;Max_cycle;Signal;HPM_P1;HPM_P2
2023/08/24 00:01:36;;;;;;;10.50;9.50;;;;;;;;;;6161928;28;20225;-65
2023/08/24 00:04:37;;;;;;;10.40;9.40;;;;;;;;;;6165812;28;20209;-65
2023/08/24 00:07:38;;;;;;;10.90;9.77;;;;;;;;;;6173259;28;20256;-65
2023/08/24 00:10:39;;;;;;;10.03;9.13;;;;;;;;;;6159496;28;20231;-65
2023/08/24 00:13:41;;;;;;;10.10;9.20;;;;;;;;;;6158983;28;20215;-65
2023/08/24 00:16:43;;;;;;;10.73;9.63;;;;;;;;;;6165292;28;20199;-65
2023/08/24 00:19:44;;;;;;;11.77;10.67;;;;;;;;;;6170723;28;20224;-65
2023/08/24 00:22:45;;;;;;;12.47;10.07;;;;;;;;;;6164547;28;20200;-65
2023/08/24 00:25:46;;;;;;;10.40;9.40;;;;;;;;;;6158958;28;20208;-65
2023/08/24 00:28:47;;;;;;;12.17;10.13;;;;;;;;;;6163341;28;20196;-65
2023/08/24 00:31:48;;;;;;;10.93;9.87;;;;;;;;;;6176382;28;20192;-65
2023/08/24 00:34:49;;;;;;;10.50;9.50;;;;;;;;;;6175302;28;20254;-65
2023/08/24 00:37:50;;;;;;;12.90;10.20;;;;;;;;;;6161066;28;20192;-65
2023/08/24 00:40:53;;;;;;;9.87;8.97;;;;;;;;;;6170573;28;20193;-66
2023/08/24 00:43:54;;;;;;;10.60;9.50;;;;;;;;;;6152152;28;20201;-65
2023/08/24 00:46:55;;;;;;;11.03;9.93;;;;;;;;;;6158377;28;20192;-66
2023/08/24 00:49:56;;;;;;;10.10;9.10;;;;;;;;;;6161461;28;20195;-66
2023/08/24 00:52:58;;;;;;;11.27;10.17;;;;;;;;;;6159305;28;20224;-66
2023/08/24 00:55:59;;;;;;;10.23;9.07;;;;;;;;;;6157892;28;20243;-66
2023/08/24 00:59:00;;;;;;;10.80;9.77;;;;;;;;;;6159307;28;20323;-66
2023/08/24 01:02:02;;;;;;;11.00;9.90;;;;;;;;;;6158402;28;20227;-66
2023/08/24 01:05:06;;;;;;;10.87;9.47;;;;;;;;;;6156918;28;20204;-66
2023/08/24 01:08:08;;;;;;;10.53;9.53;;;;;;;;;;6175242;28;20236;-66
2023/08/24 01:11:24;;;;;;;10.13;9.33;;;;;;;;;;6155696;28;20197;-66
2023/08/24 01:14:39;;;;;;;10.93;9.87;;;;;;;;;;6172452;28;20248;-66
2023/08/24 01:17:42;;;;;;;11.17;9.97;;;;;;;;;;6168805;28;20217;-66
2023/08/24 01:20:44;;;;;;;10.50;9.50;;;;;;;;;;6173967;28;20188;-66
2023/08/24 01:24:01;;;;;;;12.23;9.73;;;;;;;;;;6172556;28;20204;-66
2023/08/24 01:27:02;;;;;;;12.77;10.53;;;;;;;;;;6171648;28;20197;-66
2023/08/24 01:30:04;;;;;;;11.87;10.20;;;;;;;;;;6172726;28;20188;-66
2023/08/24 01:33:11;;;;;;;12.33;9.87;;;;;;;;;;6154541;28;20220;-66
2023/08/24 01:36:13;;;;;;;11.17;10.13;;;;;;;;;;6167654;28;20189;-66
2023/08/24 01:39:44;;;;;;;11.53;10.30;;;;;;;;;;6168807;28;20208;-66
2023/08/24 01:42:51;;;;;;;10.40;9.37;;;;;;;;;;6141736;28;20241;-66
2023/08/24 01:45:53;;;;;;;11.20;10.10;;;;;;;;;;6158387;28;20202;-66
2023/08/24 01:48:55;;;;;;;11.00;9.90;;;;;;;;;;6152172;28;20196;-66
2023/08/24 01:51:57;;;;;;;10.47;9.60;;;;;;;;;;6176134;28;20250;-66
2023/08/24 01:54:58;;;;;;;10.60;9.60;;;;;;;;;;6155695;28;20216;-66
2023/08/24 01:57:59;;;;;;;10.97;9.83;;;;;;;;;;6172695;28;20196;-66
2023/08/24 02:01:00;;;;;;;11.20;10.03;;;;;;;;;;6150849;28;20196;-66
2023/08/24 02:04:01;;;;;;;11.33;10.13;;;;;;;;;;6172468;28;20307;-66
2023/08/24 02:07:02;;;;;;;11.57;10.43;;;;;;;;;;6164211;28;20263;-66
2023/08/24 02:10:03;;;;;;;12.70;10.30;;;;;;;;;;6161951;28;20188;-66
2023/08/24 02:13:04;;;;;;;11.43;10.20;;;;;;;;;;6156414;28;20208;-66
2023/08/24 02:16:06;;;;;;;11.57;10.13;;;;;;;;;;6158143;28;20191;-66
2023/08/24 02:19:07;;;;;;;10.90;9.97;;;;;;;;;;6156019;28;20201;-66
2023/08/24 02:22:09;;;;;;;11.33;10.13;;;;;;;;;;6153208;28;20310;-66
2023/08/24 02:25:10;;;;;;;10.87;9.87;;;;;;;;;;6172843;28;20201;-66
2023/08/24 02:28:11;;;;;;;10.97;9.60;;;;;;;;;;6162500;28;20200;-66
2023/08/24 02:31:12;;;;;;;11.30;10.17;;;;;;;;;;6165267;28;20196;-64
2023/08/24 02:34:13;;;;;;;11.17;9.97;;;;;;;;;;6146168;28;20221;-65
2023/08/24 02:37:14;;;;;;;11.27;10.17;;;;;;;;;;6171320;28;20185;-65
2023/08/24 02:40:15;;;;;;;11.83;10.67;;;;;;;;;;6157259;28;20219;-65
2023/08/24 02:43:16;;;;;;;11.80;10.60;;;;;;;;;;6170978;28;20275;-65
2023/08/24 02:46:18;;;;;;;11.63;10.43;;;;;;;;;;6171651;28;20203;-66
2023/08/24 02:49:19;;;;;;;11.07;9.97;;;;;;;;;;6157067;28;20196;-65
2023/08/24 02:52:20;;;;;;;11.33;10.27;;;;;;;;;;6171330;28;20202;-65
2023/08/24 02:55:21;;;;;;;11.63;10.40;;;;;;;;;;6155952;28;20279;-65
2023/08/24 02:58:22;;;;;;;10.73;9.63;;;;;;;;;;6160373;28;20189;-65
2023/08/24 03:01:23;;;;;;;12.10;10.90;;;;;;;;;;6178247;28;20181;-65
2023/08/24 03:04:24;;;;;;;11.80;10.60;;;;;;;;;;6148945;28;20196;-65
2023/08/24 03:07:26;;;;;;;11.43;10.30;;;;;;;;;;6152524;28;20244;-65
2023/08/24 03:10:27;;;;;;;10.90;9.83;;;;;;;;;;6159729;28;20204;-65
2023/08/24 03:13:28;;;;;;;12.03;10.70;;;;;;;;;;6164478;28;20225;-65
2023/08/24 03:16:29;;;;;;;11.23;10.13;;;;;;;;;;6153938;28;20287;-66
2023/08/24 03:19:30;;;;;;;10.83;9.83;;;;;;;;;;6148291;28;20205;-65
2023/08/24 03:22:31;;;;;;;10.87;9.77;;;;;;;;;;6164756;28;20243;-65
2023/08/24 03:25:36;;;;;;;12.07;10.77;;;;;;;;;;6158746;28;20197;-65
2023/08/24 03:28:37;;;;;;;11.43;10.33;;;;;;;;;;6161592;28;20199;-65
2023/08/24 03:31:38;;;;;;;11.20;9.93;;;;;;;;;;6151272;28;20192;-65
2023/08/24 03:34:40;;;;;;;13.43;10.13;;;;;;;;;;6154637;28;20228;-65
2023/08/24 03:37:41;;;;;;;12.10;10.77;;;;;;;;;;6142870;28;20212;-65
2023/08/24 03:40:42;;;;;;;11.83;10.67;;;;;;;;;;6147450;28;20188;-65
2023/08/24 03:43:43;;;;;;;12.93;11.60;;;;;;;;;;6152983;28;20204;-66
2023/08/24 03:46:44;;;;;;;12.67;11.17;;;;;;;;;;6157529;28;20204;-65
2023/08/24 03:49:45;;;;;;;12.43;11.20;;;;;;;;;;6160694;28;20200;-66
2023/08/24 03:52:46;;;;;;;13.43;10.83;;;;;;;;;;6158261;28;20228;-65
2023/08/24 03:55:48;;;;;;;13.43;11.53;;;;;;;;;;6156141;28;20198;-66
2023/08/24 03:58:49;;;;;;;12.70;10.63;;;;;;;;;;6174234;28;20196;-66
2023/08/24 04:01:50;;;;;;;11.93;10.83;;;;;;;;;;6151033;28;20309;-64
2023/08/24 04:04:51;;;;;;;12.73;11.53;;;;;;;;;;6158306;28;20211;-64
2023/08/24 04:07:52;;;;;;;14.67;11.67;;;;;;;;;;6159249;28;20245;-65
2023/08/24 04:10:54;;;;;;;12.60;11.30;;;;;;;;;;6156291;28;20196;-65
2023/08/24 04:13:55;;;;;;;12.30;11.03;;;;;;;;;;6172670;28;20200;-66
2023/08/24 04:16:56;;;;;;;10.70;9.70;;;;;;;;;;6161935;28;20192;-65
2023/08/24 04:19:57;;;;;;;11.43;10.43;;;;;;;;;;6167150;28;20203;-66
2023/08/24 04:22:58;;;;;;;13.70;10.77;;;;;;;;;;6177472;28;20196;-65
2023/08/24 04:25:59;;;;;;;12.17;10.87;;;;;;;;;;6184538;28;20198;-65
2023/08/24 04:29:00;;;;;;;12.53;10.70;;;;;;;;;;6165009;28;20266;-65
2023/08/24 04:32:01;;;;;;;12.80;11.60;;;;;;;;;;6160069;28;20302;-65
2023/08/24 04:35:02;;;;;;;11.57;10.27;;;;;;;;;;6169267;28;20236;-65
2023/08/24 04:38:04;;;;;;;11.60;10.50;;;;;;;;;;6135970;28;20245;-65
2023/08/24 04:41:07;;;;;;;12.33;10.17;;;;;;;;;;6153523;28;20223;-65
2023/08/24 04:44:08;;;;;;;12.80;11.50;;;;;;;;;;6167197;28;20196;-65
2023/08/24 04:47:09;;;;;;;15.57;10.73;;;;;;;;;;6150257;28;20285;-65
2023/08/24 04:50:10;;;;;;;11.07;9.97;;;;;;;;;;6163524;28;20196;-65
2023/08/24 04:53:14;;;;;;;11.80;10.70;;;;;;;;;;6167872;28;20240;-65
2023/08/24 04:56:15;;;;;;;11.87;10.30;;;;;;;;;;6172964;28;20525;-65
2023/08/24 04:59:16;;;;;;;11.07;9.97;;;;;;;;;;6153946;28;20231;-66
2023/08/24 05:02:18;;;;;;;12.43;10.73;;;;;;;;;;6164416;28;20197;-66
2023/08/24 05:05:19;;;;;;;12.03;10.97;;;;;;;;;;6148077;28;20196;-65
2023/08/24 05:08:20;;;;;;;13.57;9.97;;;;;;;;;;6148908;29;20241;-65
2023/08/24 05:11:23;;;;;;;11.40;10.40;;;;;;;;;;6157727;28;20286;-65
2023/08/24 05:14:24;;;;;;;12.23;11.10;;;;;;;;;;6161714;28;20299;-65
2023/08/24 05:17:27;;;;;;;12.43;10.63;;;;;;;;;;6155630;28;20196;-65
2023/08/24 05:20:29;;;;;;;11.63;10.53;;;;;;;;;;6162979;28;20197;-65
2023/08/24 05:23:33;;;;;;;11.83;10.73;;;22.80;85.20;;;;;;6162456;28;20189;-65
2023/08/24 05:26:34;;;;;;;11.63;10.43;;;;;;;;;;6150170;28;20202;-65
2023/08/24 05:29:35;;;;;;;11.57;10.63;;;;;;;;;;6169447;28;20277;-65
2023/08/24 05:32:38;;;;;;;11.60;10.53;;;;;;;;;;6167599;28;20276;-66
2023/08/24 05:35:39;;;;;;;12.67;10.80;;;;;;;;;;6155591;28;20217;-64
2023/08/24 05:38:46;;;;;;;10.87;9.73;;;;;;;;;;6179513;28;20230;-65
2023/08/24 05:41:50;;;;;;;12.00;10.83;;;;;;;;;;6162554;28;20204;-65
2023/08/24 05:44:51;;;;;;;11.73;9.93;;;;;;;;;;6166706;28;20193;-63
2023/08/24 05:47:52;;;;;;;11.43;10.30;;;;;;;;;;6157981;28;20195;-64
2023/08/24 05:50:53;;;;;;;11.47;10.27;;;;;;;;;;6155997;28;20195;-64
2023/08/24 05:53:58;;;;;;;12.30;11.13;;;;;;;;;;6155192;28;20205;-65
2023/08/24 05:57:00;;;;;;;11.07;10.07;;;;;;;;;;6168914;28;20189;-64
2023/08/24 06:00:01;;;;;;;13.07;11.77;;;;;;;;;;6156493;28;20189;-67
2023/08/24 06:03:02;;;;;;;14.80;10.77;;;;;;;;;;6162306;28;20283;-68
2023/08/24 06:06:04;;;;;;;12.50;11.30;;;;;;;;;;6156119;28;20358;-68
2023/08/24 06:09:05;;;;;;;11.80;10.53;;;;;;;;;;6157416;28;20203;-68
2023/08/24 06:12:07;;;;;;;12.63;10.57;;;;;;;;;;6156093;28;20286;-67
2023/08/24 06:15:10;;;;;;;13.93;10.83;;;;;;;;;;6161644;28;20315;-66
2023/08/24 06:18:11;;;;;;;12.00;10.80;;;;;;;;;;6159207;28;20193;-66
2023/08/24 06:21:12;;;;;;;11.70;10.53;;;;;;;;;;6155516;28;20202;-66
2023/08/24 06:24:13;;;;;;;11.73;10.60;;;;;;;;;;6155914;28;20196;-68
2023/08/24 06:27:14;;;;;;;12.50;11.30;;;;;;;;;;6159750;28;20200;-66
2023/08/24 06:30:15;;;;;;;11.73;10.10;;;20.80;93.40;;;;;;6157404;28;20191;-66
2023/08/24 06:33:17;;;;;;;13.23;10.70;;;21.30;92.80;;;;;;6133565;28;20243;-66
2023/08/24 06:36:17;;;;;;;11.07;10.10;;;21.40;93.20;;;;;;6166046;28;20193;-67
2023/08/24 06:39:19;;;;;;;11.63;10.27;;;21.40;92.90;;;;;;6154644;28;20196;-67
2023/08/24 06:42:20;;;;;;;12.53;11.27;;;;;;;;;;6131867;28;20335;-65
2023/08/24 06:45:21;;;;;;;11.93;10.73;;;;;;;;;;6172181;28;20197;-65
2023/08/24 06:48:22;;;;;;;11.37;10.37;;;;;;;;;;6171252;28;20196;-65
2023/08/24 06:51:23;;;;;;;12.63;10.80;;;;;;;;;;6154598;28;20195;-64
2023/08/24 06:54:24;;;;;;;12.60;11.10;;;;;;;;;;6146718;28;20216;-66
2023/08/24 06:57:25;;;;;;;12.03;10.83;;;;;;;;;;6142197;28;20216;-66
2023/08/24 07:00:26;;;;;;;11.90;10.73;;;;;;;;;;6151319;28;20195;-67
2023/08/24 07:03:27;;;;;;;12.50;11.40;;;;;;;;;;6153917;28;20196;-67
2023/08/24 07:06:28;;;;;;;11.23;10.30;;;;;;;;;;6155978;28;20251;-67
2023/08/24 07:09:29;;;;;;;12.73;11.53;;;;;;;;;;6163379;28;20204;-67
2023/08/24 07:12:30;;;;;;;11.73;10.53;;;21.80;91.50;;;;;;6167693;28;20201;-66
2023/08/24 07:15:33;;;;;;;12.77;11.57;;;21.90;91.50;;;;;;6153771;28;20280;-66
2023/08/24 07:18:33;;;;;;;13.90;11.90;;;21.90;91.20;;;;;;6161580;28;20287;-66
2023/08/24 07:21:34;;;;;;;12.80;11.60;;;22.00;91.00;;;;;;6170631;28;20192;-66
2023/08/24 07:24:36;;;;;;;12.77;11.50;;;;;;;;;;6157280;28;20247;-65
2023/08/24 07:27:37;;;;;;;12.13;11.23;;;;;;;;;;6176882;28;20207;-65
2023/08/24 07:30:38;;;;;;;12.70;11.23;;;;;;;;;;6187746;28;20312;-67
2023/08/24 07:33:39;;;;;;;16.23;12.03;;;22.00;91.30;;;;;;6162956;28;20367;-65
2023/08/24 07:36:40;;;;;;;13.73;12.33;;;22.50;88.40;;;;;;6167522;28;20205;-66
2023/08/24 07:39:41;;;;;;;12.97;11.67;;;;;;;;;;6159989;28;20215;-67
2023/08/24 07:42:45;;;;;;;12.47;11.33;;;;;;;;;;6177247;28;20247;-66
2023/08/24 07:45:46;;;;;;;17.93;11.93;;;;;;;;;;6169992;28;20275;-67
2023/08/24 07:48:47;;;;;;;14.87;12.10;;;;;;;;;;6160740;28;20242;-68
2023/08/24 07:51:49;;;;;;;11.93;10.77;;;;;;;;;;6158273;28;20200;-67
2023/08/24 07:54:50;;;;;;;12.60;11.37;;;;;;;;;;6171611;28;20216;-67
2023/08/24 07:57:51;;;;;;;12.57;11.10;;;;;;;;;;6179035;28;20216;-67
2023/08/24 08:00:52;;;;;;;14.20;11.30;;;;;;;;;;6164819;28;20192;-67
2023/08/24 08:03:53;;;;;;;11.97;10.73;;;;;;;;;;6166248;28;20211;-67
2023/08/24 08:06:55;;;;;;;12.80;11.53;;;;;;;;;;6162789;28;20244;-67
2023/08/24 08:09:57;;;;;;;12.67;10.50;;;;;;;;;;6162252;28;20208;-67
2023/08/24 08:12:58;;;;;;;12.50;11.20;;;;;;;;;;6171152;28;20213;-66
2023/08/24 08:16:06;;;;;;;12.53;11.43;;;24.00;50.00;;;;;;6167543;28;20197;-67
2023/08/24 08:19:07;;;;;;;12.07;10.93;;;23.50;86.60;;;;;;6155938;28;20202;-67
2023/08/24 08:22:07;;;;;;;12.33;10.47;;;23.50;86.40;;;;;;6170111;28;20253;-67
2023/08/24 08:25:08;;;;;;;11.30;10.40;;;;;;;;;;6187857;28;20204;-67
2023/08/24 08:28:09;;;;;;;10.73;9.60;;;23.60;85.80;;;;;;6158235;28;20286;-67
2023/08/24 08:31:10;;;;;;;10.70;9.70;;;23.70;82.30;;;;;;6166379;28;20208;-67
2023/08/24 08:34:10;;;;;;;10.50;9.40;;;23.90;80.60;;;;;;6162285;28;20278;-67
2023/08/24 08:37:11;;;;;;;10.30;9.40;;;23.90;81.60;;;;;;6162192;28;20193;-68
2023/08/24 08:40:12;;;;;;;11.80;9.53;;;24.00;81.30;;;;;;6169376;28;20189;-68
2023/08/24 08:43:13;;;;;;;10.17;9.20;;;;;;;;;;6172147;28;20184;-66
2023/08/24 08:46:16;;;;;;;10.10;9.17;;;24.20;80.10;;;;;;6169118;28;20251;-67
2023/08/24 08:49:19;;;;;;;10.20;9.30;;;24.20;80.20;;;;;;6160430;28;20232;-68
2023/08/24 08:52:19;;;;;;;10.10;9.03;;;24.20;79.20;;;;;;6175495;28;20204;-68
2023/08/24 08:55:21;;;;;;;10.40;9.50;;;;;;;;;;6157399;28;20218;-67
2023/08/24 08:58:22;;;;;;;10.20;9.30;;;;;;;;;;6176645;28;20193;-67
2023/08/24 09:01:24;;;;;;;9.90;9.00;;;;;;;;;;6178846;28;20216;-67
2023/08/24 09:04:25;;;;;;;9.63;8.63;;;;;;;;;;6156958;28;20193;-68
2023/08/24 09:07:27;;;;;;;9.87;9.07;;;;;;;;;;6161261;28;20240;-67
2023/08/24 09:10:28;;;;;;;9.90;8.70;;;24.60;80.20;;;;;;6173966;28;20267;-67
2023/08/24 09:13:29;;;;;;;9.67;8.53;;;;;;;;;;6147303;28;20224;-68
2023/08/24 09:16:30;;;;;;;9.60;8.70;;;;;;;;;;6169821;28;20200;-68
2023/08/24 09:19:35;;;;;;;9.80;8.90;;;;;;;;;;6176686;28;20184;-68
2023/08/24 09:22:37;;;;;;;10.23;9.30;;;;;;;;;;6175360;28;20193;-68
2023/08/24 09:25:46;;;;;;;9.30;8.37;;;;;;;;;;6164127;28;20188;-68
2023/08/24 09:28:47;;;;;;;10.23;9.20;;;;;;;;;;6176492;28;20204;-68
2023/08/24 09:31:50;;;;;;;11.03;9.97;;;;;;;;;;6175720;28;20193;-68
2023/08/24 09:34:52;;;;;;;8.83;8.13;;;;;;;;;;6158679;28;20241;-68
2023/08/24 09:37:53;;;;;;;10.50;8.43;;;;;;;;;;6170766;28;20270;-68
2023/08/24 09:40:54;;;;;;;10.40;9.17;;;;;;;;;;6169375;28;20196;-68
2023/08/24 09:44:03;;;;;;;9.50;8.60;;;;;;;;;;6168970;28;20201;-68
2023/08/24 09:47:10;;;;;;;9.77;8.77;;;;;;;;;;6190499;28;20204;-68
2023/08/24 09:50:12;;;;;;;9.27;8.53;;;;;;;;;;6166912;28;20185;-68
2023/08/24 09:53:17;;;;;;;9.57;8.57;;;;;;;;;;6161395;28;20252;-67
2023/08/24 09:56:20;;;;;;;9.57;8.60;;;;;;;;;;6176460;28;20188;-68
2023/08/24 09:59:24;;;;;;;8.97;8.17;;;;;;;;;;6176069;28;20203;-68
2023/08/24 10:02:27;;;;;;;8.57;7.87;;;;;;;;;;6165612;28;20200;-69
2023/08/24 10:05:29;;;;;;;9.67;8.83;;;;;;;;;;6184046;28;20201;-70
2023/08/24 10:08:33;;;;;;;9.60;8.73;;;;;;;;;;6175799;28;20244;-69
2023/08/24 10:11:36;;;;;;;9.80;8.90;;;;;;;;;;6165313;28;20204;-69
2023/08/24 10:15:12;;;;;;;10.23;9.17;;;;;;;;;;6160918;28;20213;-70
2023/08/24 10:18:16;;;;;;;10.30;9.30;;;;;;;;;;6173584;28;20248;-69
2023/08/24 10:21:17;;;;;;;10.27;9.43;;;;;;;;;;6168381;28;20232;-68
2023/08/24 10:24:20;;;;;;;9.77;8.87;;;;;;;;;;6174555;28;20206;-68
2023/08/24 10:27:26;;;;;;;9.60;8.70;;;;;;;;;;6161563;28;20204;-68
2023/08/24 10:30:30;;;;;;;8.97;8.07;;;;;;;;;;6175968;28;20193;-68
2023/08/24 10:33:32;;;;;;;9.20;8.10;;;;;;;;;;6174222;28;20302;-68
2023/08/24 10:36:34;;;;;;;9.03;8.23;;;;;;;;;;6168309;28;20200;-68
2023/08/24 10:39:37;;;;;;;10.80;9.63;;;;;;;;;;6175865;28;20283;-69
2023/08/24 10:42:45;;;;;;;10.20;9.40;;;;;;;;;;6162194;28;20197;-69
2023/08/24 10:45:56;;;;;;;9.87;9.07;;;;;;;;;;6179356;28;20225;-69
2023/08/24 10:48:58;;;;;;;9.97;9.17;;;;;;;;;;6149938;28;20220;-68
2023/08/24 10:52:17;;;;;;;9.20;8.30;;;;;;;;;;6172068;28;20197;-68
2023/08/24 10:55:26;;;;;;;9.73;8.67;;;;;;;;;;6164711;28;20219;-68
2023/08/24 10:58:27;;;;;;;8.90;8.10;;;;;;;;;;6175795;28;20193;-69
2023/08/24 11:01:28;;;;;;;9.90;8.90;;;;;;;;;;6159266;28;20196;-68
2023/08/24 11:04:29;;;;;;;9.60;8.70;;;;;;;;;;6166314;28;20204;-69
2023/08/24 11:07:30;;;;;;;9.50;8.60;;;;;;;;;;6159546;28;20247;-68
2023/08/24 11:10:53;;;;;;;8.83;8.13;;;;;;;;;;6180744;28;20195;-69
2023/08/24 11:14:14;;;;;;;9.80;8.80;;;;;;;;;;6178904;28;20303;-70
2023/08/24 11:17:19;;;;;;;9.30;8.50;;;;;;;;;;6159852;28;20195;-69
2023/08/24 11:20:21;;;;;;;8.60;7.77;;;;;;;;;;6169830;28;20190;-70
2023/08/24 11:23:23;;;;;;;8.43;7.73;;;;;;;;;;6166534;28;20193;-68
2023/08/24 11:26:24;;;;;;;8.53;7.83;;;;;;;;;;6153329;28;20219;-69
2023/08/24 11:29:26;;;;;;;9.73;8.93;;;;;;;;;;6167664;28;20259;-70
2023/08/24 11:32:27;;;;;;;9.70;8.67;;;;;;;;;;6187184;28;20219;-68
2023/08/24 11:35:29;;;;;;;9.83;7.90;;;;;;;;;;6157039;28;20298;-67
2023/08/24 11:38:40;;;;;;;8.33;7.63;;;;;;;;;;6158466;28;20224;-67
2023/08/24 11:41:41;;;;;;;10.33;8.17;;;;;;;;;;6171585;28;20189;-68
2023/08/24 11:44:46;;;;;;;8.53;7.60;;;;;;;;;;6172433;28;20252;-68
2023/08/24 11:47:48;;;;;;;8.97;8.07;;;;;;;;;;6171274;28;20277;-67
2023/08/24 11:50:50;;;;;;;8.90;8.00;;;;;;;;;;6155770;28;20205;-68
2023/08/24 11:53:52;;;;;;;8.63;7.83;;;;;;;;;;6168905;28;20212;-67
2023/08/24 11:56:53;;;;;;;8.63;7.83;;;;;;;;;;6165356;28;20193;-68
2023/08/24 11:59:55;;;;;;;8.60;7.80;;;;;;;;;;6152244;28;20204;-68
2023/08/24 12:02:57;;;;;;;9.20;8.30;;;;;;;;;;6188538;28;21886;-68
2023/08/24 12:06:04;;;;;;;9.33;8.03;;;;;;;;;;6177748;28;20275;-68
2023/08/24 12:09:06;;;;;;;7.90;7.10;;;;;;;;;;6165715;28;20185;-68
2023/08/24 12:12:12;;;;;;;7.93;7.13;;;;;;;;;;6163523;28;20193;-68
2023/08/24 12:15:20;;;;;;;7.40;6.53;;;35.20;53.00;;;;;;6171597;28;20299;-67
2023/08/24 12:18:21;;;;;;;7.93;6.83;;;36.90;50.60;;;;;;6170543;28;20493;-68
2023/08/24 12:21:22;;;;;;;7.15;6.50;;;;;;;;;;6157267;28;20203;-68
2023/08/24 12:24:23;;;;;;;6.90;6.18;;;40.80;43.10;;;;;;6161267;28;20236;-67
2023/08/24 12:27:26;;;;;;;7.78;5.80;;;;;;;;;;6175860;28;20187;-67
2023/08/24 12:30:26;;;;;;;7.38;6.78;;;42.50;38.90;;;;;;6177389;28;20254;-67
2023/08/24 12:33:31;;;;;;;6.60;6.00;;;;;;;;;;6157294;28;20216;-67
2023/08/24 12:36:36;;;;;;;7.18;6.32;;;;;;;;;;6177928;28;20181;-67
2023/08/24 12:39:55;;;;;;;6.43;5.93;;;;;;;;;;6187284;28;20184;-67
2023/08/24 12:42:55;;;;;;;7.20;6.60;;;42.00;39.00;;;;;;6176464;28;20189;-66
2023/08/24 12:45:56;;;;;;;7.75;7.00;;;41.80;39.40;;;;;;6165141;28;20195;-67
2023/08/24 12:48:57;;;;;;;6.75;6.20;;;42.20;40.30;;;;;;6173867;28;20195;-67
2023/08/24 12:51:58;;;;;;;7.10;6.47;;;;;;;;;;6176984;28;20256;-66
2023/08/24 12:54:58;;;;;;;7.60;7.00;;;44.10;36.60;;;;;;6171257;28;20219;-67
2023/08/24 12:57:59;;;;;;;7.05;6.45;;;44.20;36.70;;;;;;6162379;28;20217;-67
2023/08/24 13:01:00;;;;;;;7.18;6.47;;;44.70;36.80;;;;;;6177681;28;20184;-67
2023/08/24 13:04:01;;;;;;;7.25;6.38;;;45.30;35.50;;;;;;6169115;28;20320;-67
2023/08/24 13:07:02;;;;;;;8.77;6.88;;;45.70;35.70;;;;;;6172146;28;20231;-66
2023/08/24 13:10:04;;;;;;;7.32;6.82;;;46.40;33.50;;;;;;6152627;28;20288;-66
2023/08/24 13:13:05;;;;;;;6.95;6.35;;;46.70;34.20;;;;;;6157895;28;20219;-66
2023/08/24 13:16:05;;;;;;;8.60;6.82;;;47.00;33.80;;;;;;6169532;28;20189;-67
2023/08/24 13:19:07;;;;;;;7.32;6.72;;;47.50;33.60;;;;;;6157527;28;20271;-67
2023/08/24 13:22:08;;;;;;;6.72;6.13;;;47.50;32.70;;;;;;6154754;28;20200;-67
2023/08/24 13:25:09;;;;;;;7.43;6.75;;;47.00;33.50;;;;;;6163238;28;20212;-67
2023/08/24 13:28:09;;;;;;;8.43;7.63;;;46.50;33.40;;;;;;6145167;28;20192;-67
2023/08/24 13:31:10;;;;;;;8.00;7.28;;;45.30;34.80;;;;;;6169237;28;20196;-68
2023/08/24 13:34:11;;;;;;;8.65;7.70;;;44.70;35.90;;;;;;6160501;28;20212;-68
2023/08/24 13:37:11;;;;;;;8.82;7.97;;;44.90;36.40;;;;;;6159013;28;20180;-69
2023/08/24 13:40:13;;;;;;;9.60;7.07;;;45.50;34.60;;;;;;6164579;28;20231;-69
2023/08/24 13:43:14;;;;;;;8.15;7.57;;;45.30;34.40;;;;;;6165240;28;20191;-68
2023/08/24 13:46:14;;;;;;;7.88;7.28;;;45.60;35.20;;;;;;6163657;28;20193;-67
2023/08/24 13:49:15;;;;;;;8.82;7.53;;;45.50;35.00;;;;;;6158744;28;20212;-68
2023/08/24 13:52:18;;;;;;;8.60;7.97;;;45.40;34.00;;;;;;6171314;28;20230;-68
2023/08/24 13:55:19;;;;;;;8.20;7.43;;;45.50;35.50;;;;;;6170205;28;20220;-68
2023/08/24 13:58:20;;;;;;;9.35;8.60;;;44.20;36.20;;;;;;6143885;28;20195;-68
2023/08/24 14:01:21;;;;;;;9.75;9.05;;;;;;;;;;6160517;28;20203;-68
2023/08/24 14:04:22;;;;;;;9.50;8.70;;;;;;;;;;6183535;28;20214;-68
2023/08/24 14:07:23;;;;;;;9.95;9.00;;;;;;;;;;6168222;28;20243;-68
2023/08/24 14:10:24;;;;;;;9.43;8.52;;;;;;;;;;6159084;28;20196;-68
2023/08/24 14:13:25;;;;;;;10.10;9.20;;;;;;;;;;6169050;28;20205;-68
2023/08/24 14:16:26;;;;;;;9.50;8.70;;;;;;;;;;6175780;28;20185;-67
2023/08/24 14:19:27;;;;;;;10.37;9.33;;;41.50;40.60;;;;;;6160386;28;20220;-68
2023/08/24 14:22:27;;;;;;;10.13;9.07;;;40.30;42.80;;;;;;6138745;28;20189;-68
2023/08/24 14:25:28;;;;;;;11.57;10.43;;;39.40;43.30;;;;;;6170007;28;20184;-68
2023/08/24 14:28:48;;;;;;;11.23;10.00;;;38.70;45.00;;;;;;6163626;28;20195;-68
2023/08/24 14:31:49;;;;;;;10.50;9.60;;;38.30;46.50;;;;;;6179433;28;20211;-68
2023/08/24 14:34:49;;;;;;;10.60;9.83;;;38.00;46.90;;;;;;6141674;28;20224;-68
2023/08/24 14:37:50;;;;;;;10.80;9.90;;;37.60;48.70;;;;;;6145982;28;20207;-68
2023/08/24 14:40:51;;;;;;;10.27;9.33;;;37.50;48.10;;;;;;6150363;28;20197;-68
2023/08/24 14:43:51;;;;;;;11.67;10.60;;;37.50;48.70;;;;;;6166349;28;20199;-68
2023/08/24 14:46:52;;;;;;;10.40;9.60;;;37.20;49.10;;;;;;6159919;28;20286;-68
2023/08/24 14:49:54;;;;;;;11.50;10.40;;;;;;;;;;6165089;28;20196;-67
2023/08/24 14:52:55;;;;;;;11.37;10.47;;;;;;;;;;6169123;28;20207;-67
2023/08/24 14:55:56;;;;;;;10.50;9.60;;;;;;;;;;6164022;28;20238;-67
2023/08/24 14:58:57;;;;;;;11.67;10.63;;;;;;;;;;6175706;28;20248;-67
2023/08/24 15:02:00;;;;;;;11.43;10.27;;;;;;;;;;6169024;28;20227;-67
2023/08/24 15:05:02;;;;;;;11.73;10.77;;;;;;;;;;6175688;28;20196;-68
2023/08/24 15:08:04;;;;;;;11.67;10.67;;;;;;;;;;6165001;28;20268;-68
2023/08/24 15:11:05;;;;;;;10.77;9.87;;;;;;;;;;6175099;28;20278;-68
2023/08/24 15:14:06;;;;;;;10.73;9.63;;;;;;;;;;6158876;28;20208;-68
2023/08/24 15:17:07;;;;;;;10.80;9.87;;;;;;;;;;6154117;28;20224;-67
2023/08/24 15:20:08;;;;;;;11.43;10.30;;;;;;;;;;6173558;28;20243;-67
2023/08/24 15:23:10;;;;;;;10.60;9.63;;;;;;;;;;6158587;28;20272;-66
2023/08/24 15:26:11;;;;;;;10.77;9.90;;;;;;;;;;6170630;28;20235;-67
2023/08/24 15:29:15;;;;;;;11.97;10.77;;;;;;;;;;6173497;28;20189;-66
2023/08/24 15:32:16;;;;;;;11.53;10.33;;;;;;;;;;6153829;28;20191;-67
2023/08/24 15:35:17;;;;;;;11.30;9.50;;;;;;;;;;6159894;28;20307;-69
2023/08/24 15:38:31;;;;;;;12.50;11.40;;;34.40;52.00;;;;;;6158832;28;20203;-68
2023/08/24 15:41:32;;;;;;;29.77;26.90;;;34.20;54.40;;;;;;6165420;28;20201;-66
2023/08/24 15:44:33;;;;;;;15.60;14.20;;;34.00;55.30;;;;;;6158599;28;20229;-66
2023/08/24 15:47:34;;;;;;;12.50;11.27;;;33.60;54.30;;;;;;6153014;28;20200;-66
2023/08/24 15:50:34;;;;;;;12.10;11.07;;;33.40;56.10;;;;;;6162860;28;20232;-67
2023/08/24 15:53:35;;;;;;;12.97;11.97;;;33.30;55.90;;;;;;6170167;28;20226;-67
2023/08/24 15:56:36;;;;;;;12.13;10.90;;;33.20;56.70;;;;;;6162779;28;20203;-67
2023/08/24 15:59:37;;;;;;;11.33;10.30;;;33.10;57.80;;;;;;6155961;28;20196;-67
2023/08/24 16:02:38;;;;;;;12.27;11.27;;;33.10;58.20;;;;;;6149358;28;20254;-67
2023/08/24 16:05:39;;;;;;;12.90;11.80;;;33.00;57.90;;;;;;6174080;28;20193;-68
2023/08/24 16:08:40;;;;;;;13.37;12.17;;;33.00;58.10;;;;;;6141735;28;20403;-67
2023/08/24 16:11:40;;;;;;;13.53;12.40;;;32.90;58.20;;;;;;6156739;28;20234;-68
2023/08/24 16:14:41;;;;;;;12.83;11.63;;;32.80;59.20;;;;;;6167150;28;20221;-68
2023/08/24 16:17:42;;;;;;;12.60;11.50;;;32.80;58.70;;;;;;6163737;28;20211;-67
2023/08/24 16:20:42;;;;;;;13.03;11.93;;;32.70;59.30;;;;;;6161951;28;20224;-67
2023/08/24 16:23:43;;;;;;;12.07;10.87;;;32.60;59.30;;;;;;6167523;28;20200;-67
2023/08/24 16:26:44;;;;;;;13.07;12.07;;;32.50;60.00;;;;;;6142862;28;20201;-67
2023/08/24 16:29:44;;;;;;;13.63;12.40;;;32.50;60.00;;;;;;6140412;28;20223;-67
2023/08/24 16:32:45;;;;;;;11.80;10.80;;;32.40;60.20;;;;;;6178856;28;20224;-67
2023/08/24 16:35:47;;;;;;;12.73;11.63;;;32.30;61.00;;;;;;6154455;28;20212;-67
2023/08/24 16:38:48;;;;;;;12.43;11.33;;;32.20;61.40;;;;;;6173263;28;20271;-67
2023/08/24 16:41:48;;;;;;;12.37;11.37;;;32.00;61.70;;;;;;6143332;28;20188;-67
2023/08/24 16:44:49;;;;;;;13.13;11.93;;;31.90;61.70;;;;;;6162023;28;20234;-67
2023/08/24 16:47:50;;;;;;;12.73;11.57;;;31.80;61.70;;;;;;6159327;28;20204;-67
2023/08/24 16:50:52;;;;;;;12.83;11.57;;;31.70;61.80;;;;;;6166980;28;20216;-67
2023/08/24 16:53:53;;;;;;;14.03;12.50;;;31.50;62.30;;;;;;6158831;28;20883;-67
2023/08/24 16:56:53;;;;;;;13.33;12.23;;;31.30;63.40;;;;;;6161872;28;20192;-66
2023/08/24 16:59:54;;;;;;;13.10;11.80;;;31.10;63.10;;;;;;6157822;28;20228;-66
2023/08/24 17:02:58;;;;;;;12.80;11.50;;;30.90;63.70;;;;;;6163225;28;20196;-67
2023/08/24 17:05:58;;;;;;;14.00;12.73;;;30.70;63.80;;;;;;6171568;28;20189;-67
2023/08/24 17:08:59;;;;;;;13.43;12.13;;;30.50;64.70;;;;;;6159500;28;20184;-67